sensor_id;sensor_type;location;lat;lon;timestamp;P1;durP1;ratioP1;P2;durP2;ratioP2
31768;SDS011;18342;52.132;21.048;2022-10-16T00:00:56;20.37;;;14.23;;
31768;SDS011;18342;52.132;21.048;2022-10-16T00:03:22;24.77;;;14.63;;
31768;SDS011;18342;52.132;21.048;2022-10-16T00:05:48;22.90;;;13.67;;
31768;SDS011;18342;52.132;21.048;2022-10-16T00:08:14;23.53;;;14.73;;
31768;SDS011;18342;52.132;21.048;2022-10-16T00:10:40;21.33;;;14.90;;
31768;SDS011;18342;52.132;21.048;2022-10-16T00:13:07;20.70;;;13.80;;
31768;SDS011;18342;52.132;21.048;2022-10-16T00:15:33;20.87;;;15.30;;
31768;SDS011;18342;52.132;21.048;2022-10-16T00:18:01;22.13;;;15.23;;
31768;SDS011;18342;52.132;21.048;2022-10-16T00:20:27;22.90;;;15.13;;
31768;SDS011;18342;52.132;21.048;2022-10-16T00:22:53;25.97;;;15.43;;
31768;SDS011;18342;52.132;21.048;2022-10-16T00:25:19;23.17;;;15.63;;
31768;SDS011;18342;52.132;21.048;2022-10-16T00:27:45;21.80;;;15.73;;
31768;SDS011;18342;52.132;21.048;2022-10-16T00:30:11;24.63;;;16.17;;
31768;SDS011;18342;52.132;21.048;2022-10-16T00:32:37;20.33;;;14.93;;
31768;SDS011;18342;52.132;21.048;2022-10-16T00:35:03;24.03;;;15.70;;
31768;SDS011;18342;52.132;21.048;2022-10-16T00:37:29;21.37;;;15.73;;
31768;SDS011;18342;52.132;21.048;2022-10-16T00:39:55;22.93;;;15.87;;
31768;SDS011;18342;52.132;21.048;2022-10-16T00:42:22;26.23;;;16.97;;
31768;SDS011;18342;52.132;21.048;2022-10-16T00:47:52;25.13;;;16.50;;
31768;SDS011;18342;52.132;21.048;2022-10-16T00:50:32;25.53;;;16.40;;
31768;SDS011;18342;52.132;21.048;2022-10-16T00:52:59;24.17;;;16.23;;
31768;SDS011;18342;52.132;21.048;2022-10-16T00:55:26;24.70;;;15.80;;
31768;SDS011;18342;52.132;21.048;2022-10-16T00:57:54;23.70;;;16.97;;
31768;SDS011;18342;52.132;21.048;2022-10-16T01:00:22;28.23;;;17.20;;
31768;SDS011;18342;52.132;21.048;2022-10-16T01:02:55;23.57;;;16.60;;
31768;SDS011;18342;52.132;21.048;2022-10-16T01:05:22;21.83;;;15.73;;
31768;SDS011;18342;52.132;21.048;2022-10-16T01:17:53;23.47;;;16.63;;
31768;SDS011;18342;52.132;21.048;2022-10-16T01:21:09;24.90;;;16.67;;
31768;SDS011;18342;52.132;21.048;2022-10-16T01:23:15;25.83;;;16.67;;
31768;SDS011;18342;52.132;21.048;2022-10-16T01:25:49;27.13;;;16.83;;
31768;SDS011;18342;52.132;21.048;2022-10-16T01:28:17;28.27;;;16.80;;
31768;SDS011;18342;52.132;21.048;2022-10-16T01:30:47;27.40;;;16.33;;
31768;SDS011;18342;52.132;21.048;2022-10-16T01:33:26;26.63;;;17.47;;
31768;SDS011;18342;52.132;21.048;2022-10-16T01:35:55;26.47;;;17.17;;
31768;SDS011;18342;52.132;21.048;2022-10-16T01:38:34;28.80;;;17.27;;
31768;SDS011;18342;52.132;21.048;2022-10-16T01:41:12;28.47;;;16.77;;
31768;SDS011;18342;52.132;21.048;2022-10-16T01:43:46;28.30;;;16.67;;
31768;SDS011;18342;52.132;21.048;2022-10-16T01:46:14;27.37;;;17.07;;
31768;SDS011;18342;52.132;21.048;2022-10-16T01:48:41;27.03;;;17.13;;
31768;SDS011;18342;52.132;21.048;2022-10-16T01:51:08;25.10;;;17.30;;
31768;SDS011;18342;52.132;21.048;2022-10-16T01:53:35;24.77;;;17.13;;
31768;SDS011;18342;52.132;21.048;2022-10-16T01:56:02;26.40;;;17.00;;
31768;SDS011;18342;52.132;21.048;2022-10-16T01:58:29;24.63;;;17.07;;
31768;SDS011;18342;52.132;21.048;2022-10-16T02:00:59;23.10;;;16.43;;
31768;SDS011;18342;52.132;21.048;2022-10-16T02:03:25;28.07;;;17.37;;
31768;SDS011;18342;52.132;21.048;2022-10-16T02:05:52;26.00;;;17.33;;
31768;SDS011;18342;52.132;21.048;2022-10-16T02:08:20;24.27;;;16.67;;
31768;SDS011;18342;52.132;21.048;2022-10-16T02:10:46;26.70;;;18.10;;
31768;SDS011;18342;52.132;21.048;2022-10-16T02:13:15;24.93;;;17.43;;
31768;SDS011;18342;52.132;21.048;2022-10-16T02:15:42;26.30;;;16.93;;
31768;SDS011;18342;52.132;21.048;2022-10-16T02:18:08;29.50;;;18.50;;
31768;SDS011;18342;52.132;21.048;2022-10-16T02:20:49;28.90;;;17.93;;
31768;SDS011;18342;52.132;21.048;2022-10-16T02:23:19;24.83;;;17.40;;
31768;SDS011;18342;52.132;21.048;2022-10-16T02:25:46;24.47;;;17.37;;
31768;SDS011;18342;52.132;21.048;2022-10-16T02:28:16;25.90;;;16.63;;
31768;SDS011;18342;52.132;21.048;2022-10-16T02:30:49;31.53;;;18.43;;
31768;SDS011;18342;52.132;21.048;2022-10-16T02:33:16;27.37;;;18.17;;
31768;SDS011;18342;52.132;21.048;2022-10-16T02:35:44;30.00;;;17.57;;
31768;SDS011;18342;52.132;21.048;2022-10-16T02:38:10;23.13;;;16.13;;
31768;SDS011;18342;52.132;21.048;2022-10-16T02:40:37;23.07;;;16.57;;
31768;SDS011;18342;52.132;21.048;2022-10-16T02:43:04;25.97;;;17.73;;
31768;SDS011;18342;52.132;21.048;2022-10-16T02:45:30;23.70;;;17.80;;
31768;SDS011;18342;52.132;21.048;2022-10-16T02:47:56;23.27;;;16.33;;
31768;SDS011;18342;52.132;21.048;2022-10-16T02:50:22;24.43;;;18.00;;
31768;SDS011;18342;52.132;21.048;2022-10-16T02:52:50;23.53;;;17.40;;
31768;SDS011;18342;52.132;21.048;2022-10-16T02:55:16;23.90;;;17.43;;
31768;SDS011;18342;52.132;21.048;2022-10-16T02:57:42;25.37;;;17.93;;
31768;SDS011;18342;52.132;21.048;2022-10-16T03:00:09;27.40;;;17.27;;
31768;SDS011;18342;52.132;21.048;2022-10-16T03:02:35;23.83;;;17.53;;
31768;SDS011;18342;52.132;21.048;2022-10-16T03:05:01;25.27;;;16.77;;
31768;SDS011;18342;52.132;21.048;2022-10-16T03:07:27;25.53;;;16.93;;
31768;SDS011;18342;52.132;21.048;2022-10-16T03:09:53;26.83;;;17.20;;
31768;SDS011;18342;52.132;21.048;2022-10-16T03:12:20;25.50;;;17.23;;
31768;SDS011;18342;52.132;21.048;2022-10-16T03:14:46;23.33;;;16.73;;
31768;SDS011;18342;52.132;21.048;2022-10-16T03:17:12;28.13;;;17.23;;
31768;SDS011;18342;52.132;21.048;2022-10-16T03:19:41;23.07;;;15.93;;
31768;SDS011;18342;52.132;21.048;2022-10-16T03:22:07;23.23;;;16.23;;
31768;SDS011;18342;52.132;21.048;2022-10-16T03:24:33;27.13;;;17.43;;
31768;SDS011;18342;52.132;21.048;2022-10-16T03:26:59;23.90;;;16.10;;
31768;SDS011;18342;52.132;21.048;2022-10-16T03:29:26;25.20;;;16.63;;
31768;SDS011;18342;52.132;21.048;2022-10-16T03:31:54;25.33;;;16.77;;
31768;SDS011;18342;52.132;21.048;2022-10-16T03:34:20;21.63;;;15.90;;
31768;SDS011;18342;52.132;21.048;2022-10-16T03:36:46;23.90;;;16.83;;
31768;SDS011;18342;52.132;21.048;2022-10-16T03:39:12;23.97;;;16.80;;
31768;SDS011;18342;52.132;21.048;2022-10-16T03:41:38;22.87;;;15.70;;
31768;SDS011;18342;52.132;21.048;2022-10-16T03:44:04;22.63;;;16.27;;
31768;SDS011;18342;52.132;21.048;2022-10-16T03:46:30;23.07;;;16.87;;
31768;SDS011;18342;52.132;21.048;2022-10-16T03:48:57;26.70;;;16.50;;
31768;SDS011;18342;52.132;21.048;2022-10-16T03:51:23;23.90;;;16.27;;
31768;SDS011;18342;52.132;21.048;2022-10-16T03:53:49;23.77;;;15.87;;
31768;SDS011;18342;52.132;21.048;2022-10-16T03:56:15;25.97;;;16.57;;
31768;SDS011;18342;52.132;21.048;2022-10-16T03:58:41;24.00;;;16.07;;
31768;SDS011;18342;52.132;21.048;2022-10-16T04:01:07;21.70;;;14.77;;
31768;SDS011;18342;52.132;21.048;2022-10-16T04:03:33;23.63;;;15.13;;
31768;SDS011;18342;52.132;21.048;2022-10-16T04:05:59;20.13;;;14.83;;
31768;SDS011;18342;52.132;21.048;2022-10-16T04:08:25;23.23;;;16.07;;
31768;SDS011;18342;52.132;21.048;2022-10-16T04:10:51;20.83;;;15.17;;
31768;SDS011;18342;52.132;21.048;2022-10-16T04:13:17;24.77;;;15.13;;
31768;SDS011;18342;52.132;21.048;2022-10-16T04:15:44;21.03;;;15.13;;
31768;SDS011;18342;52.132;21.048;2022-10-16T04:18:10;21.93;;;15.77;;
31768;SDS011;18342;52.132;21.048;2022-10-16T04:20:36;23.93;;;15.43;;
31768;SDS011;18342;52.132;21.048;2022-10-16T04:23:03;24.30;;;15.60;;
31768;SDS011;18342;52.132;21.048;2022-10-16T04:25:29;23.23;;;15.07;;
31768;SDS011;18342;52.132;21.048;2022-10-16T04:27:56;25.37;;;15.97;;
31768;SDS011;18342;52.132;21.048;2022-10-16T04:30:22;23.87;;;15.57;;
31768;SDS011;18342;52.132;21.048;2022-10-16T04:32:49;25.47;;;15.90;;
31768;SDS011;18342;52.132;21.048;2022-10-16T04:35:15;23.53;;;15.60;;
31768;SDS011;18342;52.132;21.048;2022-10-16T04:37:41;23.87;;;15.13;;
31768;SDS011;18342;52.132;21.048;2022-10-16T04:40:07;27.57;;;15.60;;
31768;SDS011;18342;52.132;21.048;2022-10-16T04:42:33;25.97;;;15.73;;
31768;SDS011;18342;52.132;21.048;2022-10-16T04:44:59;21.30;;;15.53;;
31768;SDS011;18342;52.132;21.048;2022-10-16T04:47:25;21.52;;;17.17;;
31768;SDS011;18342;52.132;21.048;2022-10-16T04:49:51;24.10;;;15.37;;
31768;SDS011;18342;52.132;21.048;2022-10-16T04:52:17;26.63;;;16.27;;
31768;SDS011;18342;52.132;21.048;2022-10-16T04:54:44;22.57;;;15.50;;
31768;SDS011;18342;52.132;21.048;2022-10-16T04:57:10;21.10;;;15.53;;
31768;SDS011;18342;52.132;21.048;2022-10-16T04:59:36;22.60;;;15.70;;
31768;SDS011;18342;52.132;21.048;2022-10-16T05:02:02;25.97;;;15.70;;
31768;SDS011;18342;52.132;21.048;2022-10-16T05:04:28;23.60;;;15.53;;
31768;SDS011;18342;52.132;21.048;2022-10-16T05:06:55;26.07;;;15.37;;
31768;SDS011;18342;52.132;21.048;2022-10-16T05:09:21;23.70;;;16.07;;
31768;SDS011;18342;52.132;21.048;2022-10-16T05:11:47;24.57;;;15.00;;
31768;SDS011;18342;52.132;21.048;2022-10-16T05:14:13;22.97;;;16.00;;
31768;SDS011;18342;52.132;21.048;2022-10-16T05:16:39;22.97;;;15.00;;
31768;SDS011;18342;52.132;21.048;2022-10-16T05:19:05;27.07;;;16.27;;
31768;SDS011;18342;52.132;21.048;2022-10-16T05:21:31;20.97;;;15.63;;
31768;SDS011;18342;52.132;21.048;2022-10-16T05:23:57;22.47;;;15.27;;
31768;SDS011;18342;52.132;21.048;2022-10-16T05:26:23;24.63;;;16.07;;
31768;SDS011;18342;52.132;21.048;2022-10-16T05:28:49;22.27;;;15.43;;
31768;SDS011;18342;52.132;21.048;2022-10-16T05:31:15;21.00;;;15.27;;
31768;SDS011;18342;52.132;21.048;2022-10-16T05:33:41;21.33;;;15.20;;
31768;SDS011;18342;52.132;21.048;2022-10-16T05:36:09;20.77;;;14.73;;
31768;SDS011;18342;52.132;21.048;2022-10-16T05:38:35;23.77;;;15.93;;
31768;SDS011;18342;52.132;21.048;2022-10-16T05:41:02;26.00;;;15.37;;
31768;SDS011;18342;52.132;21.048;2022-10-16T05:43:28;25.63;;;15.50;;
31768;SDS011;18342;52.132;21.048;2022-10-16T05:45:58;20.97;;;14.93;;
31768;SDS011;18342;52.132;21.048;2022-10-16T05:48:25;20.27;;;15.20;;
31768;SDS011;18342;52.132;21.048;2022-10-16T05:51:04;24.07;;;14.93;;
31768;SDS011;18342;52.132;21.048;2022-10-16T05:53:35;21.53;;;14.07;;
31768;SDS011;18342;52.132;21.048;2022-10-16T05:56:01;24.67;;;15.67;;
31768;SDS011;18342;52.132;21.048;2022-10-16T05:58:31;22.03;;;14.97;;
31768;SDS011;18342;52.132;21.048;2022-10-16T06:01:04;27.50;;;16.03;;
31768;SDS011;18342;52.132;21.048;2022-10-16T06:03:31;20.90;;;15.00;;
31768;SDS011;18342;52.132;21.048;2022-10-16T06:05:58;27.20;;;15.83;;
31768;SDS011;18342;52.132;21.048;2022-10-16T06:08:24;21.67;;;15.27;;
31768;SDS011;18342;52.132;21.048;2022-10-16T06:11:00;25.13;;;15.67;;
31768;SDS011;18342;52.132;21.048;2022-10-16T06:13:26;22.53;;;15.47;;
31768;SDS011;18342;52.132;21.048;2022-10-16T06:15:52;19.60;;;15.23;;
31768;SDS011;18342;52.132;21.048;2022-10-16T06:18:18;19.93;;;14.80;;
31768;SDS011;18342;52.132;21.048;2022-10-16T06:20:44;25.87;;;15.60;;
31768;SDS011;18342;52.132;21.048;2022-10-16T06:23:10;21.60;;;15.17;;
31768;SDS011;18342;52.132;21.048;2022-10-16T06:25:36;22.97;;;15.10;;
31768;SDS011;18342;52.132;21.048;2022-10-16T06:28:02;23.77;;;14.67;;
31768;SDS011;18342;52.132;21.048;2022-10-16T06:30:28;20.77;;;15.47;;
31768;SDS011;18342;52.132;21.048;2022-10-16T06:32:54;22.13;;;14.97;;
31768;SDS011;18342;52.132;21.048;2022-10-16T06:35:20;25.43;;;15.73;;
31768;SDS011;18342;52.132;21.048;2022-10-16T06:37:47;21.30;;;15.30;;
31768;SDS011;18342;52.132;21.048;2022-10-16T06:40:13;20.17;;;14.80;;
31768;SDS011;18342;52.132;21.048;2022-10-16T06:42:39;21.73;;;14.97;;
31768;SDS011;18342;52.132;21.048;2022-10-16T06:45:05;21.60;;;14.83;;
31768;SDS011;18342;52.132;21.048;2022-10-16T06:47:32;22.60;;;14.87;;
31768;SDS011;18342;52.132;21.048;2022-10-16T06:49:58;21.17;;;15.07;;
31768;SDS011;18342;52.132;21.048;2022-10-16T06:52:24;20.33;;;14.30;;
31768;SDS011;18342;52.132;21.048;2022-10-16T06:54:50;19.73;;;14.57;;
31768;SDS011;18342;52.132;21.048;2022-10-16T06:57:16;24.53;;;14.97;;
31768;SDS011;18342;52.132;21.048;2022-10-16T06:59:42;24.13;;;15.00;;
31768;SDS011;18342;52.132;21.048;2022-10-16T07:02:08;23.27;;;15.10;;
31768;SDS011;18342;52.132;21.048;2022-10-16T07:04:35;18.87;;;14.13;;
31768;SDS011;18342;52.132;21.048;2022-10-16T07:07:01;24.23;;;14.00;;
31768;SDS011;18342;52.132;21.048;2022-10-16T07:09:27;21.73;;;14.40;;
31768;SDS011;18342;52.132;21.048;2022-10-16T07:11:53;24.57;;;14.43;;
31768;SDS011;18342;52.132;21.048;2022-10-16T07:14:20;19.70;;;14.13;;
31768;SDS011;18342;52.132;21.048;2022-10-16T07:16:46;20.33;;;14.67;;
31768;SDS011;18342;52.132;21.048;2022-10-16T07:19:12;23.30;;;15.57;;
31768;SDS011;18342;52.132;21.048;2022-10-16T07:21:40;20.07;;;14.30;;
31768;SDS011;18342;52.132;21.048;2022-10-16T07:24:07;26.07;;;14.83;;
31768;SDS011;18342;52.132;21.048;2022-10-16T07:26:34;18.30;;;14.13;;
31768;SDS011;18342;52.132;21.048;2022-10-16T07:29:00;26.03;;;15.50;;
31768;SDS011;18342;52.132;21.048;2022-10-16T07:31:26;19.90;;;13.50;;
31768;SDS011;18342;52.132;21.048;2022-10-16T07:33:53;21.87;;;14.27;;
31768;SDS011;18342;52.132;21.048;2022-10-16T07:36:19;20.23;;;14.67;;
31768;SDS011;18342;52.132;21.048;2022-10-16T07:38:46;21.33;;;14.13;;
31768;SDS011;18342;52.132;21.048;2022-10-16T07:41:16;21.83;;;14.23;;
31768;SDS011;18342;52.132;21.048;2022-10-16T07:43:46;20.37;;;14.37;;
31768;SDS011;18342;52.132;21.048;2022-10-16T07:46:12;21.13;;;14.90;;
31768;SDS011;18342;52.132;21.048;2022-10-16T07:48:39;19.83;;;14.03;;
31768;SDS011;18342;52.132;21.048;2022-10-16T07:51:06;20.40;;;14.73;;
31768;SDS011;18342;52.132;21.048;2022-10-16T07:53:32;23.53;;;14.23;;
31768;SDS011;18342;52.132;21.048;2022-10-16T07:55:59;20.73;;;14.53;;
31768;SDS011;18342;52.132;21.048;2022-10-16T07:58:26;18.90;;;13.17;;
31768;SDS011;18342;52.132;21.048;2022-10-16T08:00:52;20.90;;;13.63;;
31768;SDS011;18342;52.132;21.048;2022-10-16T08:03:18;19.93;;;13.90;;
31768;SDS011;18342;52.132;21.048;2022-10-16T08:05:45;20.57;;;13.73;;
31768;SDS011;18342;52.132;21.048;2022-10-16T08:08:12;25.70;;;14.73;;
31768;SDS011;18342;52.132;21.048;2022-10-16T08:10:38;17.43;;;13.30;;
31768;SDS011;18342;52.132;21.048;2022-10-16T08:13:04;21.00;;;13.93;;
31768;SDS011;18342;52.132;21.048;2022-10-16T08:15:30;21.50;;;13.90;;
31768;SDS011;18342;52.132;21.048;2022-10-16T08:17:57;17.00;;;13.40;;
31768;SDS011;18342;52.132;21.048;2022-10-16T08:20:24;18.00;;;12.73;;
31768;SDS011;18342;52.132;21.048;2022-10-16T08:22:51;17.80;;;12.93;;
31768;SDS011;18342;52.132;21.048;2022-10-16T08:25:17;17.77;;;12.70;;
31768;SDS011;18342;52.132;21.048;2022-10-16T08:27:43;17.73;;;12.57;;
31768;SDS011;18342;52.132;21.048;2022-10-16T08:30:09;20.10;;;12.60;;
31768;SDS011;18342;52.132;21.048;2022-10-16T08:32:36;19.40;;;12.43;;
31768;SDS011;18342;52.132;21.048;2022-10-16T08:35:02;17.90;;;12.33;;
31768;SDS011;18342;52.132;21.048;2022-10-16T08:37:31;20.27;;;12.73;;
31768;SDS011;18342;52.132;21.048;2022-10-16T08:39:58;16.50;;;12.27;;
31768;SDS011;18342;52.132;21.048;2022-10-16T08:42:46;18.17;;;11.87;;
31768;SDS011;18342;52.132;21.048;2022-10-16T08:50:32;17.90;;;11.23;;
31768;SDS011;18342;52.132;21.048;2022-10-16T08:52:58;16.65;;;11.98;;
31768;SDS011;18342;52.132;21.048;2022-10-16T08:55:33;15.97;;;12.03;;
31768;SDS011;18342;52.132;21.048;2022-10-16T08:58:07;20.10;;;12.37;;
31768;SDS011;18342;52.132;21.048;2022-10-16T09:00:36;18.75;;;12.00;;
31768;SDS011;18342;52.132;21.048;2022-10-16T09:05:48;17.42;;;12.45;;
31768;SDS011;18342;52.132;21.048;2022-10-16T09:08:18;16.90;;;12.03;;
31768;SDS011;18342;52.132;21.048;2022-10-16T09:23:17;16.80;;;11.93;;
31768;SDS011;18342;52.132;21.048;2022-10-16T09:25:48;16.52;;;12.10;;
31768;SDS011;18342;52.132;21.048;2022-10-16T09:28:15;15.40;;;11.75;;
31768;SDS011;18342;52.132;21.048;2022-10-16T09:30:41;15.85;;;11.55;;
31768;SDS011;18342;52.132;21.048;2022-10-16T09:33:09;18.55;;;12.02;;
31768;SDS011;18342;52.132;21.048;2022-10-16T09:35:40;15.88;;;11.38;;
31768;SDS011;18342;52.132;21.048;2022-10-16T09:38:06;15.27;;;11.30;;
31768;SDS011;18342;52.132;21.048;2022-10-16T09:40:34;16.40;;;11.52;;
31768;SDS011;18342;52.132;21.048;2022-10-16T09:48:21;13.98;;;10.38;;
31768;SDS011;18342;52.132;21.048;2022-10-16T09:50:57;15.68;;;11.85;;
31768;SDS011;18342;52.132;21.048;2022-10-16T09:53:23;14.43;;;11.05;;
31768;SDS011;18342;52.132;21.048;2022-10-16T09:55:49;15.93;;;10.77;;
31768;SDS011;18342;52.132;21.048;2022-10-16T09:58:16;13.88;;;10.55;;
31768;SDS011;18342;52.132;21.048;2022-10-16T10:00:42;16.80;;;10.80;;
31768;SDS011;18342;52.132;21.048;2022-10-16T10:03:19;15.18;;;10.68;;
31768;SDS011;18342;52.132;21.048;2022-10-16T10:05:54;14.63;;;11.05;;
31768;SDS011;18342;52.132;21.048;2022-10-16T10:08:20;18.00;;;11.70;;
31768;SDS011;18342;52.132;21.048;2022-10-16T10:10:47;15.43;;;11.20;;
31768;SDS011;18342;52.132;21.048;2022-10-16T10:13:21;15.57;;;10.63;;
31768;SDS011;18342;52.132;21.048;2022-10-16T10:15:47;16.27;;;10.90;;
31768;SDS011;18342;52.132;21.048;2022-10-16T10:18:20;14.77;;;11.10;;
31768;SDS011;18342;52.132;21.048;2022-10-16T10:20:59;15.85;;;10.68;;
31768;SDS011;18342;52.132;21.048;2022-10-16T10:23:26;14.35;;;9.93;;
31768;SDS011;18342;52.132;21.048;2022-10-16T10:39:17;17.10;;;10.20;;
31768;SDS011;18342;52.132;21.048;2022-10-16T10:41:48;16.30;;;10.30;;
31768;SDS011;18342;52.132;21.048;2022-10-16T10:54:45;15.93;;;10.02;;
31768;SDS011;18342;52.132;21.048;2022-10-16T10:57:27;13.10;;;10.32;;
31768;SDS011;18342;52.132;21.048;2022-10-16T11:00:00;12.85;;;10.45;;
31768;SDS011;18342;52.132;21.048;2022-10-16T11:02:44;15.15;;;10.10;;
31768;SDS011;18342;52.132;21.048;2022-10-16T11:05:26;16.70;;;9.98;;
31768;SDS011;18342;52.132;21.048;2022-10-16T11:08:00;12.10;;;9.88;;
31768;SDS011;18342;52.132;21.048;2022-10-16T11:11:02;13.55;;;9.98;;
31768;SDS011;18342;52.132;21.048;2022-10-16T11:13:26;13.68;;;10.02;;
31768;SDS011;18342;52.132;21.048;2022-10-16T11:15:54;14.73;;;9.65;;
31768;SDS011;18342;52.132;21.048;2022-10-16T11:18:22;13.65;;;10.02;;
31768;SDS011;18342;52.132;21.048;2022-10-16T11:20:52;17.25;;;10.27;;
31768;SDS011;18342;52.132;21.048;2022-10-16T11:23:26;12.73;;;10.18;;
31768;SDS011;18342;52.132;21.048;2022-10-16T11:25:56;13.65;;;10.48;;
31768;SDS011;18342;52.132;21.048;2022-10-16T11:28:23;16.17;;;10.18;;
31768;SDS011;18342;52.132;21.048;2022-10-16T11:30:59;13.63;;;10.00;;
31768;SDS011;18342;52.132;21.048;2022-10-16T11:41:35;13.23;;;10.00;;
31768;SDS011;18342;52.132;21.048;2022-10-16T11:46:29;13.48;;;10.15;;
31768;SDS011;18342;52.132;21.048;2022-10-16T11:49:00;14.50;;;10.15;;
31768;SDS011;18342;52.132;21.048;2022-10-16T11:51:31;13.05;;;9.93;;
31768;SDS011;18342;52.132;21.048;2022-10-16T11:54:02;16.05;;;8.75;;
31768;SDS011;18342;52.132;21.048;2022-10-16T11:56:31;12.23;;;9.65;;
31768;SDS011;18342;52.132;21.048;2022-10-16T11:59:33;12.23;;;9.50;;
31768;SDS011;18342;52.132;21.048;2022-10-16T12:04:25;14.77;;;9.65;;
31768;SDS011;18342;52.132;21.048;2022-10-16T12:09:24;14.18;;;9.48;;
31768;SDS011;18342;52.132;21.048;2022-10-16T12:11:51;15.15;;;9.50;;
31768;SDS011;18342;52.132;21.048;2022-10-16T12:16:56;13.68;;;9.48;;
31768;SDS011;18342;52.132;21.048;2022-10-16T12:19:24;15.60;;;9.75;;
31768;SDS011;18342;52.132;21.048;2022-10-16T12:21:52;11.95;;;9.10;;
31768;SDS011;18342;52.132;21.048;2022-10-16T12:26:58;11.85;;;8.82;;
31768;SDS011;18342;52.132;21.048;2022-10-16T12:31:56;13.60;;;9.73;;
31768;SDS011;18342;52.132;21.048;2022-10-16T12:34:25;11.18;;;8.88;;
31768;SDS011;18342;52.132;21.048;2022-10-16T12:36:52;11.35;;;9.23;;
31768;SDS011;18342;52.132;21.048;2022-10-16T12:39:20;15.25;;;9.55;;
31768;SDS011;18342;52.132;21.048;2022-10-16T12:41:47;13.10;;;9.32;;
31768;SDS011;18342;52.132;21.048;2022-10-16T12:44:23;12.38;;;9.35;;
31768;SDS011;18342;52.132;21.048;2022-10-16T12:46:51;12.32;;;9.07;;
31768;SDS011;18342;52.132;21.048;2022-10-16T12:49:22;15.30;;;9.90;;
31768;SDS011;18342;52.132;21.048;2022-10-16T12:51:50;12.52;;;9.48;;
31768;SDS011;18342;52.132;21.048;2022-10-16T12:54:17;14.50;;;9.80;;
31768;SDS011;18342;52.132;21.048;2022-10-16T13:10:03;15.02;;;8.85;;
31768;SDS011;18342;52.132;21.048;2022-10-16T13:17:39;11.27;;;9.25;;
31768;SDS011;18342;52.132;21.048;2022-10-16T13:27:58;11.68;;;8.70;;
31768;SDS011;18342;52.132;21.048;2022-10-16T13:30:26;14.05;;;8.20;;
31768;SDS011;18342;52.132;21.048;2022-10-16T13:35:26;13.20;;;8.80;;
31768;SDS011;18342;52.132;21.048;2022-10-16T13:38:03;11.45;;;8.23;;
31768;SDS011;18342;52.132;21.048;2022-10-16T13:40:29;15.57;;;8.75;;
31768;SDS011;18342;52.132;21.048;2022-10-16T13:42:55;10.25;;;8.35;;
31768;SDS011;18342;52.132;21.048;2022-10-16T13:45:22;12.93;;;8.35;;
31768;SDS011;18342;52.132;21.048;2022-10-16T13:47:48;11.20;;;9.55;;
31768;SDS011;18342;52.132;21.048;2022-10-16T13:50:16;11.00;;;8.70;;
31768;SDS011;18342;52.132;21.048;2022-10-16T13:52:42;10.80;;;8.73;;
31768;SDS011;18342;52.132;21.048;2022-10-16T13:55:12;11.13;;;8.98;;
31768;SDS011;18342;52.132;21.048;2022-10-16T13:57:39;12.32;;;8.38;;
31768;SDS011;18342;52.132;21.048;2022-10-16T14:00:24;11.32;;;7.70;;
31768;SDS011;18342;52.132;21.048;2022-10-16T14:02:59;9.50;;;8.50;;
31768;SDS011;18342;52.132;21.048;2022-10-16T14:05:27;11.27;;;8.25;;
31768;SDS011;18342;52.132;21.048;2022-10-16T14:07:53;10.90;;;7.90;;
31768;SDS011;18342;52.132;21.048;2022-10-16T14:10:23;14.00;;;8.48;;
31768;SDS011;18342;52.132;21.048;2022-10-16T14:12:57;9.98;;;8.32;;
31768;SDS011;18342;52.132;21.048;2022-10-16T14:15:24;10.13;;;8.02;;
31768;SDS011;18342;52.132;21.048;2022-10-16T14:17:50;11.18;;;8.63;;
31768;SDS011;18342;52.132;21.048;2022-10-16T14:20:17;13.30;;;8.85;;
31768;SDS011;18342;52.132;21.048;2022-10-16T14:22:43;9.27;;;8.13;;
31768;SDS011;18342;52.132;21.048;2022-10-16T14:30:28;10.77;;;8.77;;
31768;SDS011;18342;52.132;21.048;2022-10-16T14:37:53;9.80;;;8.80;;
31768;SDS011;18342;52.132;21.048;2022-10-16T14:40:20;12.20;;;8.65;;
31768;SDS011;18342;52.132;21.048;2022-10-16T14:42:47;12.30;;;9.10;;
31768;SDS011;18342;52.132;21.048;2022-10-16T14:45:15;14.85;;;9.52;;
31768;SDS011;18342;52.132;21.048;2022-10-16T14:47:51;11.35;;;9.00;;
31768;SDS011;18342;52.132;21.048;2022-10-16T14:50:18;12.48;;;9.15;;
31768;SDS011;18342;52.132;21.048;2022-10-16T14:52:44;12.48;;;9.02;;
31768;SDS011;18342;52.132;21.048;2022-10-16T14:55:10;12.88;;;9.02;;
31768;SDS011;18342;52.132;21.048;2022-10-16T14:57:37;12.50;;;8.65;;
31768;SDS011;18342;52.132;21.048;2022-10-16T15:00:09;11.77;;;9.20;;
31768;SDS011;18342;52.132;21.048;2022-10-16T15:02:36;13.77;;;9.70;;
31768;SDS011;18342;52.132;21.048;2022-10-16T15:05:12;12.23;;;9.88;;
31768;SDS011;18342;52.132;21.048;2022-10-16T15:07:38;12.30;;;9.80;;
31768;SDS011;18342;52.132;21.048;2022-10-16T15:10:04;12.23;;;9.25;;
31768;SDS011;18342;52.132;21.048;2022-10-16T15:12:31;14.48;;;9.68;;
31768;SDS011;18342;52.132;21.048;2022-10-16T15:14:57;11.63;;;9.45;;
31768;SDS011;18342;52.132;21.048;2022-10-16T15:17:23;11.68;;;9.48;;
31768;SDS011;18342;52.132;21.048;2022-10-16T15:19:49;11.95;;;9.27;;
31768;SDS011;18342;52.132;21.048;2022-10-16T15:22:16;13.20;;;9.40;;
31768;SDS011;18342;52.132;21.048;2022-10-16T15:24:42;13.00;;;9.80;;
31768;SDS011;18342;52.132;21.048;2022-10-16T15:27:08;12.52;;;9.80;;
31768;SDS011;18342;52.132;21.048;2022-10-16T15:29:35;14.38;;;9.60;;
31768;SDS011;18342;52.132;21.048;2022-10-16T15:32:01;12.35;;;9.82;;
31768;SDS011;18342;52.132;21.048;2022-10-16T15:34:27;12.68;;;9.40;;
31768;SDS011;18342;52.132;21.048;2022-10-16T15:36:53;12.98;;;10.27;;
31768;SDS011;18342;52.132;21.048;2022-10-16T15:39:20;12.20;;;9.98;;
31768;SDS011;18342;52.132;21.048;2022-10-16T15:41:46;10.90;;;8.90;;
31768;SDS011;18342;52.132;21.048;2022-10-16T15:44:18;13.10;;;9.65;;
31768;SDS011;18342;52.132;21.048;2022-10-16T15:46:44;13.98;;;10.02;;
31768;SDS011;18342;52.132;21.048;2022-10-16T15:49:10;14.00;;;10.20;;
31768;SDS011;18342;52.132;21.048;2022-10-16T15:51:40;11.68;;;9.98;;
31768;SDS011;18342;52.132;21.048;2022-10-16T15:54:06;14.88;;;9.73;;
31768;SDS011;18342;52.132;21.048;2022-10-16T15:56:32;12.23;;;9.55;;
31768;SDS011;18342;52.132;21.048;2022-10-16T15:59:01;13.55;;;10.32;;
31768;SDS011;18342;52.132;21.048;2022-10-16T16:01:27;11.77;;;9.68;;
31768;SDS011;18342;52.132;21.048;2022-10-16T16:03:54;12.35;;;10.00;;
31768;SDS011;18342;52.132;21.048;2022-10-16T16:06:21;13.02;;;10.35;;
31768;SDS011;18342;52.132;21.048;2022-10-16T16:08:49;13.68;;;10.27;;
31768;SDS011;18342;52.132;21.048;2022-10-16T16:11:15;16.17;;;10.32;;
31768;SDS011;18342;52.132;21.048;2022-10-16T16:13:41;17.80;;;10.90;;
31768;SDS011;18342;52.132;21.048;2022-10-16T16:16:08;15.60;;;11.52;;
31768;SDS011;18342;52.132;21.048;2022-10-16T16:18:34;19.52;;;11.40;;
31768;SDS011;18342;52.132;21.048;2022-10-16T16:21:01;16.63;;;11.07;;